Osage City, KS

6:29 PM CDT on May 30, 2015 (GMT -0500)
Skydive Kansas | | Change Station
CLOSE
Current Station
Personal Weather Station
Location: Osage City, KS
Elevation: 1089 ft
Nearby Weather Stations

Elev 1089 ft 38.64 °N, 95.80 °W | Updated 19 seconds ago

Overcast
Overcast
65.3 °F
Feels Like 65.3 °F
N
11.6
Wind Variable Wind from North
Gusts 14.5 mph

Today
High -- | Low -- °F
--% Chance of Precip.
Yesterday
High -- | Low -- °F
Precip. -- in
6:01 AM 8:40 PM
Waxing Gibbous, 92% visible
Pressure 30.12 in
Visibility 9.0 miles
Clouds Overcast 1800 ft
Dew Point 52 °F
Humidity 62%
Rainfall 0.00 in
Snow Depth Not available.
UV 1 out of 12
Pollen 7.60 out of 12
Air Quality Not available.
Flu Activity No Activity
METAR KFOE 302253Z 35009KT 9SM OVC018 16/12 A3012 RMK AO2 SLP198 T01610117

More Conditions Fewer Conditions

Pressure 30.12 in
Visibility 9.0 miles
Clouds Overcast 1800 ft
Dew Point 52 °F
Humidity 62%
Rainfall 0.00 in
Snow Depth Not available.
UV 1 out of 12
Pollen 7.60 out of 12
Air Quality Not available.
Flu Activity No Activity
METAR KFOE 302253Z 35009KT 9SM OVC018 16/12 A3012 RMK AO2 SLP198 T01610117

More Conditions Fewer Conditions

10-Day Weather Forecast

Almanac

Astronomy

May. 30, 2015 Rise Set
Actual Time
Civil Twilight
Nautical Twilight
Astronomical Twilight
Moon
Length of Visible Light
Length of Day
Tomorrow will be .
, % of the Moon is Illuminated

Today's Extremes

State Highs State Lows

Community

WunderPhotos

Upload Photos

1,825,551 photos uploaded!

WunderBlogs® & News

Nearby

Air Quality

  Air Quality AQ Index Pollutant
Not available.

Snow Depth

Station Depth Elevation

Earthquake Activity

City Distance Mag. Time & Date
Minimum magnitude displayed is 2.5.

Coastal Water Temperatures

Place Temperature

Stations

Nearby Weather Stations

Station Location Temp. Windchill Dew Point Humidity Wind Precip. Elev Updated Type